sensor_id;sensor_type;location;lat;lon;timestamp;P1;durP1;ratioP1;P2;durP2;ratioP2
4766;SDS011;2397;53.576;9.746;2023-07-13T00:01:31;6.67;;;3.10;;
4766;SDS011;2397;53.576;9.746;2023-07-13T00:03:58;3.43;;;3.13;;
4766;SDS011;2397;53.576;9.746;2023-07-13T00:06:26;2.80;;;2.60;;
4766;SDS011;2397;53.576;9.746;2023-07-13T00:08:56;4.50;;;3.33;;
4766;SDS011;2397;53.576;9.746;2023-07-13T00:11:23;4.97;;;3.00;;
4766;SDS011;2397;53.576;9.746;2023-07-13T00:13:50;3.40;;;3.17;;
4766;SDS011;2397;53.576;9.746;2023-07-13T00:16:17;4.50;;;3.17;;
4766;SDS011;2397;53.576;9.746;2023-07-13T00:18:45;3.50;;;3.20;;
4766;SDS011;2397;53.576;9.746;2023-07-13T00:21:12;3.43;;;2.83;;
4766;SDS011;2397;53.576;9.746;2023-07-13T00:23:39;4.40;;;2.77;;
4766;SDS011;2397;53.576;9.746;2023-07-13T00:26:08;3.07;;;2.60;;
4766;SDS011;2397;53.576;9.746;2023-07-13T00:28:37;3.30;;;2.80;;
4766;SDS011;2397;53.576;9.746;2023-07-13T00:31:06;3.43;;;2.83;;
4766;SDS011;2397;53.576;9.746;2023-07-13T00:33:35;4.50;;;3.43;;
4766;SDS011;2397;53.576;9.746;2023-07-13T00:36:02;2.73;;;2.53;;
4766;SDS011;2397;53.576;9.746;2023-07-13T00:38:29;10.23;;;3.27;;
4766;SDS011;2397;53.576;9.746;2023-07-13T00:40:56;5.50;;;3.03;;
4766;SDS011;2397;53.576;9.746;2023-07-13T00:43:24;3.10;;;2.90;;
4766;SDS011;2397;53.576;9.746;2023-07-13T00:48:24;4.80;;;2.97;;
4766;SDS011;2397;53.576;9.746;2023-07-13T00:50:55;6.70;;;2.93;;
4766;SDS011;2397;53.576;9.746;2023-07-13T00:53:23;3.33;;;3.03;;
4766;SDS011;2397;53.576;9.746;2023-07-13T00:55:52;7.17;;;3.47;;
4766;SDS011;2397;53.576;9.746;2023-07-13T00:58:21;4.43;;;3.40;;
4766;SDS011;2397;53.576;9.746;2023-07-13T01:00:49;4.03;;;3.37;;
4766;SDS011;2397;53.576;9.746;2023-07-13T01:03:17;7.60;;;3.77;;
4766;SDS011;2397;53.576;9.746;2023-07-13T01:05:44;3.83;;;3.40;;
4766;SDS011;2397;53.576;9.746;2023-07-13T01:08:14;3.63;;;3.30;;
4766;SDS011;2397;53.576;9.746;2023-07-13T01:10:50;4.20;;;3.90;;
4766;SDS011;2397;53.576;9.746;2023-07-13T01:13:18;4.07;;;3.70;;
4766;SDS011;2397;53.576;9.746;2023-07-13T01:15:46;5.03;;;3.80;;
4766;SDS011;2397;53.576;9.746;2023-07-13T01:18:17;8.00;;;4.00;;
4766;SDS011;2397;53.576;9.746;2023-07-13T01:20:59;5.97;;;3.83;;
4766;SDS011;2397;53.576;9.746;2023-07-13T01:23:28;5.50;;;4.20;;
4766;SDS011;2397;53.576;9.746;2023-07-13T01:25:56;5.60;;;3.93;;
4766;SDS011;2397;53.576;9.746;2023-07-13T01:28:24;5.50;;;5.00;;
4766;SDS011;2397;53.576;9.746;2023-07-13T01:30:54;5.60;;;4.50;;
4766;SDS011;2397;53.576;9.746;2023-07-13T01:33:22;8.30;;;4.47;;
4766;SDS011;2397;53.576;9.746;2023-07-13T01:35:49;5.10;;;4.63;;
4766;SDS011;2397;53.576;9.746;2023-07-13T01:38:18;5.07;;;4.53;;
4766;SDS011;2397;53.576;9.746;2023-07-13T01:40:47;6.33;;;5.20;;
4766;SDS011;2397;53.576;9.746;2023-07-13T01:43:14;9.47;;;4.97;;
4766;SDS011;2397;53.576;9.746;2023-07-13T01:45:41;4.80;;;4.40;;
4766;SDS011;2397;53.576;9.746;2023-07-13T01:48:12;4.70;;;4.30;;
4766;SDS011;2397;53.576;9.746;2023-07-13T01:50:40;5.30;;;4.77;;
4766;SDS011;2397;53.576;9.746;2023-07-13T01:53:08;5.20;;;4.73;;
4766;SDS011;2397;53.576;9.746;2023-07-13T01:55:34;7.90;;;4.90;;
4766;SDS011;2397;53.576;9.746;2023-07-13T01:58:02;7.63;;;5.60;;
4766;SDS011;2397;53.576;9.746;2023-07-13T02:00:29;8.23;;;5.63;;
4766;SDS011;2397;53.576;9.746;2023-07-13T02:02:55;6.30;;;5.70;;
4766;SDS011;2397;53.576;9.746;2023-07-13T02:05:22;5.73;;;5.23;;
4766;SDS011;2397;53.576;9.746;2023-07-13T02:07:49;5.50;;;5.10;;
4766;SDS011;2397;53.576;9.746;2023-07-13T02:10:16;5.37;;;4.97;;
4766;SDS011;2397;53.576;9.746;2023-07-13T02:12:43;6.67;;;5.80;;
4766;SDS011;2397;53.576;9.746;2023-07-13T02:15:11;6.53;;;5.80;;
4766;SDS011;2397;53.576;9.746;2023-07-13T02:17:37;10.10;;;5.87;;
4766;SDS011;2397;53.576;9.746;2023-07-13T02:20:04;5.53;;;5.13;;
4766;SDS011;2397;53.576;9.746;2023-07-13T02:22:32;8.33;;;6.53;;
4766;SDS011;2397;53.576;9.746;2023-07-13T02:24:59;6.07;;;5.47;;
4766;SDS011;2397;53.576;9.746;2023-07-13T02:27:25;6.83;;;5.90;;
4766;SDS011;2397;53.576;9.746;2023-07-13T02:29:52;8.53;;;5.93;;
4766;SDS011;2397;53.576;9.746;2023-07-13T02:32:20;8.77;;;6.03;;
4766;SDS011;2397;53.576;9.746;2023-07-13T02:34:47;9.33;;;5.80;;
4766;SDS011;2397;53.576;9.746;2023-07-13T02:37:14;10.60;;;6.27;;
4766;SDS011;2397;53.576;9.746;2023-07-13T02:39:40;6.53;;;5.53;;
4766;SDS011;2397;53.576;9.746;2023-07-13T02:42:07;6.30;;;5.70;;
4766;SDS011;2397;53.576;9.746;2023-07-13T02:44:34;6.00;;;5.50;;
4766;SDS011;2397;53.576;9.746;2023-07-13T02:47:01;6.87;;;6.17;;
4766;SDS011;2397;53.576;9.746;2023-07-13T02:49:28;8.97;;;6.50;;
4766;SDS011;2397;53.576;9.746;2023-07-13T02:51:55;7.40;;;6.43;;
4766;SDS011;2397;53.576;9.746;2023-07-13T02:54:21;8.20;;;6.23;;
4766;SDS011;2397;53.576;9.746;2023-07-13T02:56:48;9.33;;;6.40;;
4766;SDS011;2397;53.576;9.746;2023-07-13T02:59:15;7.60;;;7.00;;
4766;SDS011;2397;53.576;9.746;2023-07-13T03:01:42;6.93;;;6.20;;
4766;SDS011;2397;53.576;9.746;2023-07-13T03:04:10;6.90;;;6.27;;
4766;SDS011;2397;53.576;9.746;2023-07-13T03:06:37;8.87;;;6.07;;
4766;SDS011;2397;53.576;9.746;2023-07-13T03:09:04;7.23;;;6.53;;
4766;SDS011;2397;53.576;9.746;2023-07-13T03:11:33;6.93;;;6.30;;
4766;SDS011;2397;53.576;9.746;2023-07-13T03:14:12;6.30;;;5.80;;
4766;SDS011;2397;53.576;9.746;2023-07-13T03:16:39;6.53;;;6.00;;
4766;SDS011;2397;53.576;9.746;2023-07-13T03:19:06;9.63;;;5.97;;
4766;SDS011;2397;53.576;9.746;2023-07-13T03:21:33;10.30;;;6.37;;
4766;SDS011;2397;53.576;9.746;2023-07-13T03:24:00;8.70;;;6.30;;
4766;SDS011;2397;53.576;9.746;2023-07-13T03:26:27;6.70;;;6.10;;
4766;SDS011;2397;53.576;9.746;2023-07-13T03:28:55;6.80;;;6.10;;
4766;SDS011;2397;53.576;9.746;2023-07-13T03:31:23;12.43;;;6.07;;
4766;SDS011;2397;53.576;9.746;2023-07-13T03:33:52;8.70;;;6.37;;
4766;SDS011;2397;53.576;9.746;2023-07-13T03:36:20;8.53;;;6.50;;
4766;SDS011;2397;53.576;9.746;2023-07-13T03:38:55;7.40;;;6.33;;
4766;SDS011;2397;53.576;9.746;2023-07-13T03:41:29;7.30;;;6.10;;
4766;SDS011;2397;53.576;9.746;2023-07-13T03:43:58;8.03;;;6.50;;
4766;SDS011;2397;53.576;9.746;2023-07-13T03:46:25;8.70;;;5.40;;
4766;SDS011;2397;53.576;9.746;2023-07-13T03:48:52;9.20;;;6.50;;
4766;SDS011;2397;53.576;9.746;2023-07-13T03:51:19;8.07;;;5.87;;
4766;SDS011;2397;53.576;9.746;2023-07-13T03:53:46;6.80;;;6.17;;
4766;SDS011;2397;53.576;9.746;2023-07-13T03:56:17;8.67;;;6.20;;
4766;SDS011;2397;53.576;9.746;2023-07-13T03:58:45;6.97;;;6.33;;
4766;SDS011;2397;53.576;9.746;2023-07-13T04:01:17;9.53;;;6.17;;
4766;SDS011;2397;53.576;9.746;2023-07-13T04:03:45;6.80;;;5.60;;
4766;SDS011;2397;53.576;9.746;2023-07-13T04:06:15;9.83;;;6.00;;
4766;SDS011;2397;53.576;9.746;2023-07-13T04:08:51;7.20;;;5.93;;
4766;SDS011;2397;53.576;9.746;2023-07-13T04:11:20;7.90;;;5.77;;
4766;SDS011;2397;53.576;9.746;2023-07-13T04:13:48;7.43;;;5.37;;
4766;SDS011;2397;53.576;9.746;2023-07-13T04:16:16;6.67;;;5.93;;
4766;SDS011;2397;53.576;9.746;2023-07-13T04:18:45;6.80;;;6.17;;
4766;SDS011;2397;53.576;9.746;2023-07-13T04:21:13;8.30;;;6.07;;
4766;SDS011;2397;53.576;9.746;2023-07-13T04:23:40;9.07;;;5.57;;
4766;SDS011;2397;53.576;9.746;2023-07-13T04:26:07;11.10;;;6.03;;
4766;SDS011;2397;53.576;9.746;2023-07-13T04:28:34;14.20;;;6.70;;
4766;SDS011;2397;53.576;9.746;2023-07-13T04:31:02;8.90;;;6.20;;
4766;SDS011;2397;53.576;9.746;2023-07-13T04:33:28;7.57;;;6.80;;
4766;SDS011;2397;53.576;9.746;2023-07-13T04:35:55;9.83;;;6.17;;
4766;SDS011;2397;53.576;9.746;2023-07-13T04:38:24;11.40;;;6.27;;
4766;SDS011;2397;53.576;9.746;2023-07-13T04:40:57;9.33;;;6.07;;
4766;SDS011;2397;53.576;9.746;2023-07-13T04:43:25;8.67;;;6.30;;
4766;SDS011;2397;53.576;9.746;2023-07-13T04:45:52;8.93;;;6.20;;
4766;SDS011;2397;53.576;9.746;2023-07-13T04:48:19;6.07;;;5.47;;
4766;SDS011;2397;53.576;9.746;2023-07-13T04:50:46;10.33;;;6.17;;
4766;SDS011;2397;53.576;9.746;2023-07-13T04:53:14;7.63;;;6.47;;
4766;SDS011;2397;53.576;9.746;2023-07-13T04:55:41;10.90;;;6.60;;
4766;SDS011;2397;53.576;9.746;2023-07-13T04:58:07;6.90;;;6.30;;
4766;SDS011;2397;53.576;9.746;2023-07-13T05:00:34;9.70;;;5.73;;
4766;SDS011;2397;53.576;9.746;2023-07-13T05:03:02;12.03;;;6.73;;
4766;SDS011;2397;53.576;9.746;2023-07-13T05:05:29;6.50;;;5.53;;
4766;SDS011;2397;53.576;9.746;2023-07-13T05:07:56;12.57;;;6.70;;
4766;SDS011;2397;53.576;9.746;2023-07-13T05:10:23;10.17;;;6.50;;
4766;SDS011;2397;53.576;9.746;2023-07-13T05:12:50;9.60;;;5.93;;
4766;SDS011;2397;53.576;9.746;2023-07-13T05:15:17;11.93;;;5.93;;
4766;SDS011;2397;53.576;9.746;2023-07-13T05:17:48;8.10;;;6.00;;
4766;SDS011;2397;53.576;9.746;2023-07-13T05:20:15;19.30;;;7.20;;
4766;SDS011;2397;53.576;9.746;2023-07-13T05:22:43;13.10;;;6.30;;
4766;SDS011;2397;53.576;9.746;2023-07-13T05:25:10;8.33;;;6.30;;
4766;SDS011;2397;53.576;9.746;2023-07-13T05:27:37;17.73;;;7.13;;
4766;SDS011;2397;53.576;9.746;2023-07-13T05:30:03;12.70;;;6.20;;
4766;SDS011;2397;53.576;9.746;2023-07-13T05:32:30;7.50;;;6.63;;
4766;SDS011;2397;53.576;9.746;2023-07-13T05:34:57;13.07;;;6.30;;
4766;SDS011;2397;53.576;9.746;2023-07-13T05:37:23;17.60;;;6.53;;
4766;SDS011;2397;53.576;9.746;2023-07-13T05:39:51;9.37;;;6.17;;
4766;SDS011;2397;53.576;9.746;2023-07-13T05:42:17;11.80;;;5.73;;
4766;SDS011;2397;53.576;9.746;2023-07-13T05:44:44;12.47;;;6.10;;
4766;SDS011;2397;53.576;9.746;2023-07-13T05:47:10;14.70;;;6.60;;
4766;SDS011;2397;53.576;9.746;2023-07-13T05:49:37;11.10;;;6.23;;
4766;SDS011;2397;53.576;9.746;2023-07-13T05:52:04;6.30;;;5.77;;
4766;SDS011;2397;53.576;9.746;2023-07-13T05:54:30;11.70;;;6.13;;
4766;SDS011;2397;53.576;9.746;2023-07-13T05:56:57;14.03;;;6.73;;
4766;SDS011;2397;53.576;9.746;2023-07-13T05:59:23;11.90;;;5.70;;
4766;SDS011;2397;53.576;9.746;2023-07-13T06:01:50;11.80;;;6.97;;
4766;SDS011;2397;53.576;9.746;2023-07-13T06:04:19;10.50;;;6.27;;
4766;SDS011;2397;53.576;9.746;2023-07-13T06:06:46;14.90;;;6.83;;
4766;SDS011;2397;53.576;9.746;2023-07-13T06:09:14;8.63;;;5.80;;
4766;SDS011;2397;53.576;9.746;2023-07-13T06:11:40;17.13;;;6.03;;
4766;SDS011;2397;53.576;9.746;2023-07-13T06:14:07;12.43;;;5.90;;
4766;SDS011;2397;53.576;9.746;2023-07-13T06:16:34;13.03;;;5.77;;
4766;SDS011;2397;53.576;9.746;2023-07-13T06:19:00;10.17;;;5.90;;
4766;SDS011;2397;53.576;9.746;2023-07-13T06:21:28;12.37;;;5.77;;
4766;SDS011;2397;53.576;9.746;2023-07-13T06:23:55;13.77;;;5.80;;
4766;SDS011;2397;53.576;9.746;2023-07-13T06:26:21;5.80;;;5.20;;
4766;SDS011;2397;53.576;9.746;2023-07-13T06:28:48;13.97;;;5.50;;
4766;SDS011;2397;53.576;9.746;2023-07-13T06:31:14;16.47;;;6.40;;
4766;SDS011;2397;53.576;9.746;2023-07-13T06:33:42;11.03;;;5.30;;
4766;SDS011;2397;53.576;9.746;2023-07-13T06:36:10;10.40;;;5.63;;
4766;SDS011;2397;53.576;9.746;2023-07-13T06:38:37;17.67;;;5.00;;
4766;SDS011;2397;53.576;9.746;2023-07-13T06:41:05;6.37;;;4.73;;
4766;SDS011;2397;53.576;9.746;2023-07-13T06:43:33;12.37;;;5.00;;
4766;SDS011;2397;53.576;9.746;2023-07-13T06:46:00;10.83;;;5.50;;
4766;SDS011;2397;53.576;9.746;2023-07-13T06:48:27;7.70;;;4.93;;
4766;SDS011;2397;53.576;9.746;2023-07-13T06:50:54;7.13;;;4.67;;
4766;SDS011;2397;53.576;9.746;2023-07-13T06:53:22;21.77;;;4.87;;
4766;SDS011;2397;53.576;9.746;2023-07-13T06:55:49;13.70;;;5.20;;
4766;SDS011;2397;53.576;9.746;2023-07-13T06:58:16;13.20;;;5.13;;
4766;SDS011;2397;53.576;9.746;2023-07-13T07:00:43;14.10;;;4.93;;
4766;SDS011;2397;53.576;9.746;2023-07-13T07:03:10;8.77;;;4.50;;
4766;SDS011;2397;53.576;9.746;2023-07-13T07:05:37;8.17;;;5.83;;
4766;SDS011;2397;53.576;9.746;2023-07-13T07:08:04;10.03;;;4.77;;
4766;SDS011;2397;53.576;9.746;2023-07-13T07:10:30;12.63;;;4.80;;
4766;SDS011;2397;53.576;9.746;2023-07-13T07:12:58;15.40;;;4.93;;
4766;SDS011;2397;53.576;9.746;2023-07-13T07:15:24;11.53;;;4.73;;
4766;SDS011;2397;53.576;9.746;2023-07-13T07:17:52;10.83;;;4.87;;
4766;SDS011;2397;53.576;9.746;2023-07-13T07:20:19;7.90;;;4.37;;
4766;SDS011;2397;53.576;9.746;2023-07-13T07:22:47;10.20;;;4.30;;
4766;SDS011;2397;53.576;9.746;2023-07-13T07:25:13;11.73;;;4.70;;
4766;SDS011;2397;53.576;9.746;2023-07-13T07:27:40;9.33;;;4.37;;
4766;SDS011;2397;53.576;9.746;2023-07-13T07:30:10;10.37;;;4.27;;
4766;SDS011;2397;53.576;9.746;2023-07-13T07:32:40;10.40;;;4.23;;
4766;SDS011;2397;53.576;9.746;2023-07-13T07:35:22;10.77;;;4.20;;
4766;SDS011;2397;53.576;9.746;2023-07-13T07:37:49;6.90;;;4.20;;
4766;SDS011;2397;53.576;9.746;2023-07-13T07:40:16;8.87;;;4.13;;
4766;SDS011;2397;53.576;9.746;2023-07-13T07:42:46;13.83;;;5.27;;
4766;SDS011;2397;53.576;9.746;2023-07-13T07:45:13;11.50;;;4.67;;
4766;SDS011;2397;53.576;9.746;2023-07-13T07:47:40;14.03;;;6.13;;
4766;SDS011;2397;53.576;9.746;2023-07-13T07:50:07;7.27;;;3.97;;
4766;SDS011;2397;53.576;9.746;2023-07-13T07:52:34;12.13;;;4.87;;
4766;SDS011;2397;53.576;9.746;2023-07-13T07:55:01;13.67;;;4.40;;
4766;SDS011;2397;53.576;9.746;2023-07-13T07:57:30;12.97;;;4.67;;
4766;SDS011;2397;53.576;9.746;2023-07-13T08:00:00;7.90;;;4.03;;
4766;SDS011;2397;53.576;9.746;2023-07-13T08:02:39;6.93;;;3.70;;
4766;SDS011;2397;53.576;9.746;2023-07-13T08:05:27;15.73;;;4.80;;
4766;SDS011;2397;53.576;9.746;2023-07-13T08:07:57;11.63;;;4.53;;
4766;SDS011;2397;53.576;9.746;2023-07-13T08:10:23;8.10;;;4.07;;
4766;SDS011;2397;53.576;9.746;2023-07-13T08:12:50;13.23;;;4.33;;
4766;SDS011;2397;53.576;9.746;2023-07-13T08:15:19;10.63;;;4.17;;
4766;SDS011;2397;53.576;9.746;2023-07-13T08:17:47;13.73;;;4.90;;
4766;SDS011;2397;53.576;9.746;2023-07-13T08:20:14;13.83;;;4.40;;
4766;SDS011;2397;53.576;9.746;2023-07-13T08:22:41;7.73;;;3.50;;
4766;SDS011;2397;53.576;9.746;2023-07-13T08:25:08;5.53;;;3.70;;
4766;SDS011;2397;53.576;9.746;2023-07-13T08:27:34;7.60;;;5.00;;
4766;SDS011;2397;53.576;9.746;2023-07-13T08:30:01;6.33;;;3.97;;
4766;SDS011;2397;53.576;9.746;2023-07-13T08:32:28;6.27;;;3.20;;
4766;SDS011;2397;53.576;9.746;2023-07-13T08:34:55;7.10;;;3.47;;
4766;SDS011;2397;53.576;9.746;2023-07-13T08:37:21;8.77;;;4.47;;
4766;SDS011;2397;53.576;9.746;2023-07-13T08:39:48;15.07;;;4.67;;
4766;SDS011;2397;53.576;9.746;2023-07-13T08:44:58;6.03;;;3.23;;
4766;SDS011;2397;53.576;9.746;2023-07-13T08:47:48;12.27;;;3.90;;
4766;SDS011;2397;53.576;9.746;2023-07-13T08:50:21;6.30;;;3.67;;
4766;SDS011;2397;53.576;9.746;2023-07-13T08:52:52;4.80;;;3.80;;
4766;SDS011;2397;53.576;9.746;2023-07-13T08:55:22;8.73;;;4.07;;
4766;SDS011;2397;53.576;9.746;2023-07-13T08:58:02;7.30;;;3.47;;
4766;SDS011;2397;53.576;9.746;2023-07-13T09:00:44;5.60;;;3.17;;
4766;SDS011;2397;53.576;9.746;2023-07-13T09:03:20;5.87;;;3.33;;
4766;SDS011;2397;53.576;9.746;2023-07-13T09:05:51;4.80;;;3.73;;
4766;SDS011;2397;53.576;9.746;2023-07-13T09:08:31;7.87;;;3.53;;
4766;SDS011;2397;53.576;9.746;2023-07-13T09:16:43;5.70;;;3.63;;
4766;SDS011;2397;53.576;9.746;2023-07-13T09:19:14;10.70;;;3.40;;
4766;SDS011;2397;53.576;9.746;2023-07-13T09:21:48;6.67;;;3.17;;
4766;SDS011;2397;53.576;9.746;2023-07-13T09:24:37;9.07;;;4.00;;
4766;SDS011;2397;53.576;9.746;2023-07-13T09:27:27;10.97;;;3.70;;
4766;SDS011;2397;53.576;9.746;2023-07-13T09:30:07;12.07;;;4.50;;
4766;SDS011;2397;53.576;9.746;2023-07-13T09:32:48;6.43;;;3.80;;
4766;SDS011;2397;53.576;9.746;2023-07-13T09:35:22;5.73;;;3.73;;
4766;SDS011;2397;53.576;9.746;2023-07-13T09:37:57;8.83;;;3.60;;
4766;SDS011;2397;53.576;9.746;2023-07-13T09:40:49;6.73;;;3.40;;
4766;SDS011;2397;53.576;9.746;2023-07-13T09:43:25;7.70;;;3.63;;
4766;SDS011;2397;53.576;9.746;2023-07-13T09:45:55;9.10;;;3.87;;
4766;SDS011;2397;53.576;9.746;2023-07-13T09:48:22;6.00;;;3.27;;
4766;SDS011;2397;53.576;9.746;2023-07-13T09:50:48;7.10;;;3.57;;
4766;SDS011;2397;53.576;9.746;2023-07-13T09:53:15;8.67;;;3.50;;
4766;SDS011;2397;53.576;9.746;2023-07-13T09:55:45;8.30;;;3.20;;
4766;SDS011;2397;53.576;9.746;2023-07-13T09:58:19;4.87;;;3.53;;
4766;SDS011;2397;53.576;9.746;2023-07-13T10:00:54;8.43;;;3.20;;
4766;SDS011;2397;53.576;9.746;2023-07-13T10:03:35;4.90;;;2.90;;
4766;SDS011;2397;53.576;9.746;2023-07-13T10:06:12;5.83;;;3.17;;
4766;SDS011;2397;53.576;9.746;2023-07-13T10:08:40;8.90;;;2.73;;
4766;SDS011;2397;53.576;9.746;2023-07-13T10:11:11;8.30;;;2.77;;
4766;SDS011;2397;53.576;9.746;2023-07-13T10:13:55;6.13;;;3.07;;
4766;SDS011;2397;53.576;9.746;2023-07-13T10:16:27;4.00;;;2.27;;
4766;SDS011;2397;53.576;9.746;2023-07-13T10:19:22;4.50;;;2.50;;
4766;SDS011;2397;53.576;9.746;2023-07-13T10:21:56;6.13;;;3.03;;
4766;SDS011;2397;53.576;9.746;2023-07-13T10:24:32;3.80;;;2.97;;
4766;SDS011;2397;53.576;9.746;2023-07-13T10:27:13;4.73;;;3.17;;
4766;SDS011;2397;53.576;9.746;2023-07-13T10:29:51;2.97;;;2.50;;
4766;SDS011;2397;53.576;9.746;2023-07-13T10:32:22;6.43;;;2.90;;
4766;SDS011;2397;53.576;9.746;2023-07-13T10:34:51;7.53;;;2.73;;
4766;SDS011;2397;53.576;9.746;2023-07-13T10:37:19;5.73;;;3.13;;
4766;SDS011;2397;53.576;9.746;2023-07-13T10:39:49;4.80;;;2.23;;
4766;SDS011;2397;53.576;9.746;2023-07-13T10:42:28;4.77;;;2.60;;
4766;SDS011;2397;53.576;9.746;2023-07-13T10:44:58;5.13;;;2.53;;
4766;SDS011;2397;53.576;9.746;2023-07-13T10:47:25;4.30;;;2.30;;
4766;SDS011;2397;53.576;9.746;2023-07-13T10:49:54;4.53;;;2.73;;
4766;SDS011;2397;53.576;9.746;2023-07-13T10:55:33;4.20;;;2.67;;
4766;SDS011;2397;53.576;9.746;2023-07-13T10:58:14;2.63;;;2.20;;
4766;SDS011;2397;53.576;9.746;2023-07-13T11:03:17;5.63;;;3.23;;
4766;SDS011;2397;53.576;9.746;2023-07-13T11:05:47;5.50;;;2.43;;
4766;SDS011;2397;53.576;9.746;2023-07-13T11:10:57;6.13;;;2.77;;
4766;SDS011;2397;53.576;9.746;2023-07-13T11:30:08;3.87;;;2.50;;
4766;SDS011;2397;53.576;9.746;2023-07-13T11:32:50;5.43;;;2.30;;
4766;SDS011;2397;53.576;9.746;2023-07-13T11:35:23;4.73;;;2.90;;
4766;SDS011;2397;53.576;9.746;2023-07-13T11:37:54;4.17;;;2.60;;
4766;SDS011;2397;53.576;9.746;2023-07-13T11:40:21;2.60;;;2.33;;
4766;SDS011;2397;53.576;9.746;2023-07-13T11:42:58;6.30;;;2.93;;
4766;SDS011;2397;53.576;9.746;2023-07-13T11:45:27;2.70;;;2.50;;
4766;SDS011;2397;53.576;9.746;2023-07-13T11:48:19;8.83;;;2.77;;
4766;SDS011;2397;53.576;9.746;2023-07-13T11:50:59;5.77;;;3.47;;
4766;SDS011;2397;53.576;9.746;2023-07-13T11:53:30;2.60;;;2.40;;
4766;SDS011;2397;53.576;9.746;2023-07-13T11:56:03;3.30;;;2.60;;
4766;SDS011;2397;53.576;9.746;2023-07-13T11:58:30;10.73;;;2.70;;
4766;SDS011;2397;53.576;9.746;2023-07-13T12:00:59;9.60;;;2.53;;
4766;SDS011;2397;53.576;9.746;2023-07-13T12:03:28;3.93;;;2.63;;
4766;SDS011;2397;53.576;9.746;2023-07-13T12:06:05;6.90;;;3.00;;
4766;SDS011;2397;53.576;9.746;2023-07-13T12:08:37;6.90;;;2.93;;
4766;SDS011;2397;53.576;9.746;2023-07-13T12:11:15;11.70;;;3.93;;
4766;SDS011;2397;53.576;9.746;2023-07-13T12:13:43;15.33;;;3.90;;
4766;SDS011;2397;53.576;9.746;2023-07-13T12:16:12;7.07;;;4.00;;
4766;SDS011;2397;53.576;9.746;2023-07-13T12:18:42;7.30;;;3.30;;
4766;SDS011;2397;53.576;9.746;2023-07-13T12:21:16;6.13;;;3.90;;
4766;SDS011;2397;53.576;9.746;2023-07-13T12:23:44;2.83;;;2.63;;
4766;SDS011;2397;53.576;9.746;2023-07-13T12:26:15;7.73;;;3.20;;
4766;SDS011;2397;53.576;9.746;2023-07-13T12:28:48;5.27;;;3.10;;
4766;SDS011;2397;53.576;9.746;2023-07-13T12:31:22;5.70;;;2.80;;
4766;SDS011;2397;53.576;9.746;2023-07-13T12:34:01;6.67;;;3.40;;
4766;SDS011;2397;53.576;9.746;2023-07-13T12:36:35;5.73;;;2.60;;
4766;SDS011;2397;53.576;9.746;2023-07-13T12:39:06;2.83;;;2.27;;
4766;SDS011;2397;53.576;9.746;2023-07-13T12:41:40;4.23;;;2.17;;
4766;SDS011;2397;53.576;9.746;2023-07-13T12:44:11;4.10;;;2.50;;
4766;SDS011;2397;53.576;9.746;2023-07-13T12:46:50;2.93;;;2.10;;
4766;SDS011;2397;53.576;9.746;2023-07-13T12:49:22;10.83;;;2.50;;
4766;SDS011;2397;53.576;9.746;2023-07-13T12:51:55;2.70;;;2.50;;
4766;SDS011;2397;53.576;9.746;2023-07-13T12:54:22;9.60;;;2.97;;
4766;SDS011;2397;53.576;9.746;2023-07-13T12:56:50;6.53;;;2.90;;
4766;SDS011;2397;53.576;9.746;2023-07-13T12:59:20;2.70;;;2.50;;
4766;SDS011;2397;53.576;9.746;2023-07-13T13:01:49;4.00;;;2.60;;
4766;SDS011;2397;53.576;9.746;2023-07-13T13:04:16;3.37;;;3.07;;
4766;SDS011;2397;53.576;9.746;2023-07-13T13:06:48;2.33;;;2.13;;
4766;SDS011;2397;53.576;9.746;2023-07-13T13:09:15;7.07;;;3.00;;
4766;SDS011;2397;53.576;9.746;2023-07-13T13:11:44;3.57;;;2.40;;
4766;SDS011;2397;53.576;9.746;2023-07-13T13:14:11;3.70;;;2.80;;
4766;SDS011;2397;53.576;9.746;2023-07-13T13:16:47;5.30;;;2.70;;
4766;SDS011;2397;53.576;9.746;2023-07-13T13:19:20;2.90;;;2.30;;
4766;SDS011;2397;53.576;9.746;2023-07-13T13:21:52;10.20;;;2.50;;
4766;SDS011;2397;53.576;9.746;2023-07-13T13:24:21;5.83;;;3.17;;
4766;SDS011;2397;53.576;9.746;2023-07-13T13:26:50;3.00;;;2.80;;
4766;SDS011;2397;53.576;9.746;2023-07-13T13:29:19;5.27;;;2.70;;
4766;SDS011;2397;53.576;9.746;2023-07-13T13:31:47;5.57;;;2.97;;
4766;SDS011;2397;53.576;9.746;2023-07-13T13:34:15;4.80;;;2.30;;
4766;SDS011;2397;53.576;9.746;2023-07-13T13:36:43;4.20;;;2.70;;
4766;SDS011;2397;53.576;9.746;2023-07-13T13:39:21;3.13;;;2.33;;
4766;SDS011;2397;53.576;9.746;2023-07-13T13:41:50;5.37;;;2.50;;
4766;SDS011;2397;53.576;9.746;2023-07-13T13:44:18;2.87;;;2.10;;
4766;SDS011;2397;53.576;9.746;2023-07-13T13:46:47;4.83;;;2.83;;
4766;SDS011;2397;53.576;9.746;2023-07-13T13:49:17;2.50;;;2.30;;
4766;SDS011;2397;53.576;9.746;2023-07-13T13:51:47;3.37;;;2.37;;
4766;SDS011;2397;53.576;9.746;2023-07-13T13:54:15;2.53;;;2.33;;
4766;SDS011;2397;53.576;9.746;2023-07-13T13:56:43;4.83;;;2.70;;
4766;SDS011;2397;53.576;9.746;2023-07-13T13:59:10;2.63;;;2.10;;
4766;SDS011;2397;53.576;9.746;2023-07-13T14:01:37;5.30;;;2.87;;
4766;SDS011;2397;53.576;9.746;2023-07-13T14:04:05;5.73;;;2.37;;
4766;SDS011;2397;53.576;9.746;2023-07-13T14:06:33;4.03;;;2.67;;
4766;SDS011;2397;53.576;9.746;2023-07-13T14:09:00;2.87;;;2.30;;
4766;SDS011;2397;53.576;9.746;2023-07-13T14:11:27;3.67;;;2.43;;
4766;SDS011;2397;53.576;9.746;2023-07-13T14:13:57;2.90;;;2.30;;
4766;SDS011;2397;53.576;9.746;2023-07-13T14:16:29;3.30;;;2.47;;
4766;SDS011;2397;53.576;9.746;2023-07-13T14:18:58;3.57;;;2.63;;
4766;SDS011;2397;53.576;9.746;2023-07-13T14:21:28;3.57;;;2.20;;
4766;SDS011;2397;53.576;9.746;2023-07-13T14:23:55;4.13;;;2.50;;
4766;SDS011;2397;53.576;9.746;2023-07-13T14:26:23;4.13;;;2.63;;
4766;SDS011;2397;53.576;9.746;2023-07-13T14:28:53;2.93;;;2.73;;
4766;SDS011;2397;53.576;9.746;2023-07-13T14:31:22;2.73;;;2.53;;
4766;SDS011;2397;53.576;9.746;2023-07-13T14:33:56;3.03;;;2.73;;
4766;SDS011;2397;53.576;9.746;2023-07-13T14:36:30;5.60;;;2.73;;
4766;SDS011;2397;53.576;9.746;2023-07-13T14:38:59;4.57;;;2.93;;
4766;SDS011;2397;53.576;9.746;2023-07-13T14:41:32;6.27;;;3.73;;
4766;SDS011;2397;53.576;9.746;2023-07-13T14:43:59;3.20;;;2.90;;
4766;SDS011;2397;53.576;9.746;2023-07-13T14:46:28;3.97;;;3.27;;
4766;SDS011;2397;53.576;9.746;2023-07-13T14:49:00;3.90;;;3.17;;
4766;SDS011;2397;53.576;9.746;2023-07-13T14:51:30;3.40;;;3.03;;
4766;SDS011;2397;53.576;9.746;2023-07-13T14:54:02;3.10;;;2.70;;
4766;SDS011;2397;53.576;9.746;2023-07-13T14:56:30;3.00;;;2.80;;
4766;SDS011;2397;53.576;9.746;2023-07-13T14:58:56;4.10;;;2.90;;
4766;SDS011;2397;53.576;9.746;2023-07-13T15:01:23;4.43;;;3.00;;
4766;SDS011;2397;53.576;9.746;2023-07-13T15:03:51;3.80;;;3.10;;
4766;SDS011;2397;53.576;9.746;2023-07-13T15:06:19;7.00;;;2.93;;
4766;SDS011;2397;53.576;9.746;2023-07-13T15:08:46;2.97;;;2.77;;
4766;SDS011;2397;53.576;9.746;2023-07-13T15:11:14;2.93;;;2.73;;
4766;SDS011;2397;53.576;9.746;2023-07-13T15:13:42;4.17;;;2.33;;
4766;SDS011;2397;53.576;9.746;2023-07-13T15:16:22;3.57;;;2.93;;
4766;SDS011;2397;53.576;9.746;2023-07-13T15:18:50;3.93;;;2.40;;
4766;SDS011;2397;53.576;9.746;2023-07-13T15:21:21;3.27;;;2.37;;
4766;SDS011;2397;53.576;9.746;2023-07-13T15:23:50;2.40;;;2.20;;
4766;SDS011;2397;53.576;9.746;2023-07-13T15:26:18;3.53;;;2.63;;
4766;SDS011;2397;53.576;9.746;2023-07-13T15:28:46;4.90;;;2.27;;
4766;SDS011;2397;53.576;9.746;2023-07-13T15:31:23;2.63;;;2.40;;
4766;SDS011;2397;53.576;9.746;2023-07-13T15:33:51;3.00;;;2.20;;
4766;SDS011;2397;53.576;9.746;2023-07-13T15:36:20;2.33;;;2.13;;
4766;SDS011;2397;53.576;9.746;2023-07-13T15:38:47;2.63;;;1.80;;
4766;SDS011;2397;53.576;9.746;2023-07-13T15:43:44;2.70;;;1.77;;
4766;SDS011;2397;53.576;9.746;2023-07-13T15:46:11;2.07;;;1.97;;
4766;SDS011;2397;53.576;9.746;2023-07-13T15:48:38;2.90;;;1.90;;
4766;SDS011;2397;53.576;9.746;2023-07-13T15:51:05;2.93;;;1.73;;
4766;SDS011;2397;53.576;9.746;2023-07-13T15:53:38;4.10;;;1.90;;
4766;SDS011;2397;53.576;9.746;2023-07-13T15:56:16;4.47;;;2.10;;
4766;SDS011;2397;53.576;9.746;2023-07-13T15:58:46;2.53;;;1.80;;
4766;SDS011;2397;53.576;9.746;2023-07-13T16:01:13;3.47;;;1.90;;
4766;SDS011;2397;53.576;9.746;2023-07-13T16:03:40;3.90;;;1.80;;
4766;SDS011;2397;53.576;9.746;2023-07-13T16:06:12;3.10;;;1.77;;